Time;durP1;ratioP1;P1;durP2;ratioP2;P2;SDS_P1;SDS_P2;PMS_P1;PMS_P2;Temp;Humidity;BMP_temperature;BMP_pressure;BME280_temperature;BME280_humidity;BME280_pressure;Samples;Min_cycle;Max_cycle;Signal;HPM_P1;HPM_P2
2022/07/14 00:00:00;;;;;;;3.20;1.75;;;16.30;74.00;;;;;;4989382;28;20466;-67
2022/07/14 00:02:25;;;;;;;0.00;0.00;;;16.30;73.80;;;;;;4988735;28;20045;-66
2022/07/14 00:04:51;;;;;;;0.00;0.00;;;16.30;73.80;;;;;;4988026;28;20038;-67
2022/07/14 00:07:17;;;;;;;0.00;0.00;;;16.20;73.80;;;;;;4988027;28;20110;-67
2022/07/14 00:09:42;;;;;;;0.00;0.00;;;16.20;73.70;;;;;;4986312;28;20038;-67
2022/07/14 00:12:08;;;;;;;0.00;0.00;;;16.20;73.90;;;;;;4985758;28;20056;-67
2022/07/14 00:14:33;;;;;;;0.00;0.00;;;16.20;74.00;;;;;;4989342;28;20046;-67
2022/07/14 00:16:59;;;;;;;0.00;0.00;;;16.30;74.00;;;;;;4986787;28;20039;-67
2022/07/14 00:19:25;;;;;;;0.00;0.00;;;16.20;73.90;;;;;;4977367;28;20046;-67
2022/07/14 00:21:50;;;;;;;0.00;0.00;;;16.30;73.90;;;;;;4985006;28;20054;-67
2022/07/14 00:24:16;;;;;;;0.00;0.00;;;16.20;74.20;;;;;;4982343;28;20043;-67
2022/07/14 00:26:42;;;;;;;0.00;0.00;;;16.20;74.20;;;;;;4989088;28;20480;-68
2022/07/14 00:29:08;;;;;;;0.00;0.00;;;16.10;74.10;;;;;;4983166;28;20118;-67
2022/07/14 00:31:34;;;;;;;0.13;0.13;;;16.10;74.20;;;;;;4989287;28;20060;-66
2022/07/14 00:34:00;;;;;;;0.00;0.00;;;16.10;74.10;;;;;;4986583;28;20093;-67
2022/07/14 00:36:27;;;;;;;0.00;0.00;;;16.10;74.10;;;;;;4988200;28;20081;-67
2022/07/14 00:38:54;;;;;;;0.00;0.00;;;16.10;74.20;;;;;;4988398;28;20054;-67
2022/07/14 00:41:19;;;;;;;0.00;0.00;;;16.10;74.20;;;;;;4988873;28;20042;-67
2022/07/14 00:43:45;;;;;;;0.00;0.00;;;16.10;74.30;;;;;;4988618;28;20133;-67
2022/07/14 00:46:11;;;;;;;0.00;0.00;;;16.10;74.20;;;;;;4988609;28;20058;-66
2022/07/14 00:48:36;;;;;;;0.00;0.00;;;16.10;74.10;;;;;;4985673;28;20038;-67
2022/07/14 00:51:02;;;;;;;0.00;0.00;;;16.10;74.20;;;;;;4988156;28;20043;-67
2022/07/14 00:53:28;;;;;;;0.00;0.00;;;16.10;74.20;;;;;;4988830;28;20050;-66
2022/07/14 00:55:53;;;;;;;0.00;0.00;;;16.10;74.10;;;;;;4987688;28;20407;-67
2022/07/14 00:58:19;;;;;;;0.00;0.00;;;16.10;74.20;;;;;;4989352;28;20043;-67
2022/07/14 01:00:45;;;;;;;0.00;0.00;;;16.00;74.50;;;;;;4988522;28;20041;-67
2022/07/14 01:03:11;;;;;;;0.00;0.00;;;16.00;74.60;;;;;;4988046;28;20162;-66
2022/07/14 01:05:36;;;;;;;0.00;0.00;;;15.90;74.40;;;;;;4983554;28;20096;-67
2022/07/14 01:08:02;;;;;;;0.00;0.00;;;16.00;74.40;;;;;;4989004;28;20507;-67
2022/07/14 01:10:28;;;;;;;0.00;0.00;;;16.00;74.40;;;;;;4987952;28;20117;-67
2022/07/14 01:13:00;;;;;;;0.00;0.00;;;15.90;74.60;;;;;;4989122;28;20099;-67
2022/07/14 01:15:25;;;;;;;;;;;15.90;74.60;;;;;;4989177;28;20069;-66
2022/07/14 01:17:51;;;;;;;0.00;0.00;;;15.90;74.50;;;;;;4984370;28;19921;-68
2022/07/14 01:20:18;;;;;;;0.00;0.00;;;15.90;74.40;;;;;;4989044;28;20050;-67
2022/07/14 01:22:48;;;;;;;0.00;0.00;;;15.90;74.50;;;;;;4987923;28;20073;-67
2022/07/14 01:25:15;;;;;;;0.00;0.00;;;15.90;74.80;;;;;;4992575;28;20078;-67
2022/07/14 01:27:40;;;;;;;0.00;0.00;;;15.80;75.00;;;;;;4992138;28;20153;-67
2022/07/14 01:30:08;;;;;;;0.00;0.00;;;15.80;74.90;;;;;;4992388;28;20042;-67
2022/07/14 01:32:34;;;;;;;0.00;0.00;;;15.80;74.70;;;;;;4980455;28;20161;-67
2022/07/14 01:34:59;;;;;;;0.00;0.00;;;15.80;74.70;;;;;;4973295;28;20405;-67
2022/07/14 01:37:25;;;;;;;0.00;0.00;;;15.80;74.70;;;;;;4973558;28;20042;-67
2022/07/14 01:39:51;;;;;;;0.00;0.00;;;15.80;74.80;;;;;;4973318;28;20054;-67
2022/07/14 01:42:17;;;;;;;0.00;0.00;;;15.80;74.90;;;;;;4980298;28;20047;-66
2022/07/14 01:44:43;;;;;;;0.00;0.00;;;15.70;75.10;;;;;;4991836;28;20050;-67
2022/07/14 01:47:09;;;;;;;0.00;0.00;;;15.70;75.00;;;;;;4991633;28;20049;-67
2022/07/14 01:49:35;;;;;;;0.00;0.00;;;15.60;75.00;;;;;;4992312;28;20543;-67
2022/07/14 01:52:01;;;;;;;0.00;0.00;;;15.60;75.00;;;;;;4987824;28;20065;-67
2022/07/14 01:54:26;;;;;;;0.00;0.00;;;15.60;75.00;;;;;;4972897;28;20046;-67
2022/07/14 01:56:52;;;;;;;0.00;0.00;;;15.60;75.10;;;;;;4979986;28;20042;-67
2022/07/14 01:59:18;;;;;;;0.00;0.00;;;15.60;75.30;;;;;;4988825;28;20049;-67
2022/07/14 02:01:44;;;;;;;0.00;0.00;;;15.60;75.50;;;;;;4985374;28;20053;-67
2022/07/14 02:04:16;;;;;;;0.00;0.00;;;15.60;75.30;;;;;;4973955;28;20051;-68
2022/07/14 02:06:47;;;;;;;0.00;0.00;;;15.60;75.20;;;;;;4991726;28;20048;-67
2022/07/14 02:09:13;;;;;;;0.00;0.00;;;15.60;75.50;;;;;;4987330;28;20046;-67
2022/07/14 02:14:23;;;;;;;0.00;0.00;;;15.50;75.70;;;;;;4977237;28;20579;-67
2022/07/14 02:16:49;;;;;;;0.00;0.00;;;15.50;75.70;;;;;;4991318;28;20092;-67
2022/07/14 02:19:15;;;;;;;0.00;0.00;;;15.50;75.50;;;;;;4991331;28;20137;-67
2022/07/14 02:21:42;;;;;;;0.00;0.00;;;15.40;75.80;;;;;;4990358;28;20193;-67
2022/07/14 02:24:09;;;;;;;0.00;0.00;;;15.30;76.10;;;;;;4991421;28;20069;-67
2022/07/14 02:26:36;;;;;;;0.00;0.00;;;15.30;75.90;;;;;;4982298;28;20126;-67
2022/07/14 02:29:04;;;;;;;0.00;0.00;;;15.20;75.80;;;;;;4990571;28;20399;-67
2022/07/14 02:31:31;;;;;;;0.00;0.00;;;15.20;75.80;;;;;;4990105;28;20557;-67
2022/07/14 02:33:57;;;;;;;0.00;0.00;;;15.30;76.20;;;;;;4991422;28;20046;-67
2022/07/14 02:36:23;;;;;;;0.00;0.00;;;15.30;76.70;;;;;;4990815;28;20054;-67
2022/07/14 02:38:49;;;;;;;0.00;0.00;;;15.20;77.00;;;;;;4990619;28;20050;-68
2022/07/14 02:41:15;;;;;;;0.00;0.00;;;15.20;77.20;;;;;;4983581;28;20047;-67
2022/07/14 02:43:40;;;;;;;0.00;0.00;;;15.10;77.00;;;;;;4986567;28;20402;-67
2022/07/14 02:46:06;;;;;;;0.00;0.00;;;15.10;77.40;;;;;;4990389;28;20114;-67
2022/07/14 02:48:32;;;;;;;0.00;0.00;;;15.10;77.50;;;;;;4991257;28;20039;-67
2022/07/14 02:51:06;;;;;;;0.00;0.00;;;15.00;77.50;;;;;;4987154;28;20054;-67
2022/07/14 02:53:34;;;;;;;0.00;0.00;;;15.00;77.30;;;;;;4990545;28;20463;-68
2022/07/14 02:56:00;;;;;;;0.00;0.00;;;15.00;77.20;;;;;;4986530;28;20042;-67
2022/07/14 02:58:26;;;;;;;0.00;0.00;;;15.00;77.00;;;;;;4985028;28;20062;-67
2022/07/14 03:00:53;;;;;;;0.00;0.00;;;15.00;76.90;;;;;;4988173;28;20492;-67
2022/07/14 03:03:19;;;;;;;0.00;0.00;;;15.00;76.70;;;;;;4983536;28;20073;-67
2022/07/14 03:05:46;;;;;;;0.00;0.00;;;15.00;76.60;;;;;;4980797;28;20057;-67
2022/07/14 03:08:12;;;;;;;0.00;0.00;;;15.00;76.90;;;;;;4957751;28;20073;-67
2022/07/14 03:10:38;;;;;;;0.00;0.00;;;15.00;76.80;;;;;;4990508;28;20072;-67
2022/07/14 03:13:04;;;;;;;0.00;0.00;;;15.00;76.60;;;;;;4985155;28;20034;-67
2022/07/14 03:15:30;;;;;;;0.03;0.03;;;14.90;76.60;;;;;;4990251;28;20557;-67
2022/07/14 03:17:55;;;;;;;0.00;0.00;;;14.90;76.60;;;;;;4990054;28;20050;-67
2022/07/14 03:20:21;;;;;;;0.00;0.00;;;14.90;76.60;;;;;;4989699;28;20438;-68
2022/07/14 03:22:47;;;;;;;0.00;0.00;;;14.90;76.50;;;;;;4986013;28;20054;-66
2022/07/14 03:25:12;;;;;;;0.00;0.00;;;14.80;76.40;;;;;;4989845;28;20038;-66
2022/07/14 03:27:40;;;;;;;0.00;0.00;;;14.80;76.40;;;;;;4986218;28;20034;-66
2022/07/14 03:30:07;;;;;;;0.00;0.00;;;14.80;76.50;;;;;;4989291;28;20050;-67
2022/07/14 03:32:32;;;;;;;0.00;0.00;;;14.80;76.30;;;;;;4984778;28;20046;-67
2022/07/14 03:34:59;;;;;;;0.00;0.00;;;14.70;76.30;;;;;;4989546;28;20454;-66
2022/07/14 03:37:24;;;;;;;0.00;0.00;;;14.70;76.40;;;;;;4988409;28;20054;-66
2022/07/14 03:39:51;;;;;;;0.00;0.00;;;14.70;77.00;;;;;;4988348;28;20097;-66
2022/07/14 03:42:16;;;;;;;0.00;0.00;;;14.60;77.00;;;;;;4983467;28;20038;-66
2022/07/14 03:44:44;;;;;;;0.00;0.00;;;14.60;77.30;;;;;;4989913;28;20049;-66
2022/07/14 03:47:10;;;;;;;0.00;0.00;;;14.60;77.20;;;;;;4978936;28;20042;-66
2022/07/14 03:49:36;;;;;;;0.00;0.00;;;14.70;77.20;;;;;;4989340;28;20048;-67
2022/07/14 03:52:02;;;;;;;0.00;0.00;;;14.60;77.50;;;;;;4985364;28;20039;-68
2022/07/14 03:54:27;;;;;;;0.00;0.00;;;14.60;77.60;;;;;;4986402;28;20484;-66
2022/07/14 03:56:53;;;;;;;0.00;0.00;;;14.60;77.60;;;;;;4980909;28;20073;-67
2022/07/14 03:59:18;;;;;;;0.00;0.00;;;14.60;77.60;;;;;;4988477;28;20042;-67
2022/07/14 04:01:44;;;;;;;0.00;0.00;;;14.70;77.80;;;;;;4978893;28;20055;-66
2022/07/14 04:04:10;;;;;;;0.00;0.00;;;14.70;77.80;;;;;;4981670;28;20389;-67
2022/07/14 04:06:35;;;;;;;0.00;0.00;;;14.70;77.90;;;;;;4984606;28;20125;-67
2022/07/14 04:09:01;;;;;;;0.00;0.00;;;14.70;78.00;;;;;;4989276;28;20038;-67
2022/07/14 04:11:27;;;;;;;0.00;0.00;;;14.70;78.10;;;;;;4986461;28;20065;-67
2022/07/14 04:13:53;;;;;;;0.00;0.00;;;14.80;79.10;;;;;;4987586;28;20049;-67
2022/07/14 04:16:18;;;;;;;0.00;0.00;;;14.70;79.50;;;;;;4987804;28;20550;-67
2022/07/14 04:18:44;;;;;;;0.00;0.00;;;14.60;79.60;;;;;;4975754;28;20058;-67
2022/07/14 04:21:10;;;;;;;0.00;0.00;;;14.70;79.80;;;;;;4982548;28;20511;-67
2022/07/14 04:23:36;;;;;;;0.00;0.00;;;14.70;79.90;;;;;;4974477;28;20104;-66
2022/07/14 04:26:03;;;;;;;0.00;0.00;;;14.70;79.50;;;;;;4972475;28;20070;-67
2022/07/14 04:28:30;;;;;;;0.00;0.00;;;14.70;79.80;;;;;;4975144;28;20518;-67
2022/07/14 04:30:56;;;;;;;0.00;0.00;;;14.70;79.70;;;;;;4969590;28;20046;-67
2022/07/14 04:33:22;;;;;;;0.00;0.00;;;14.70;79.60;;;;;;4973958;28;20133;-67
2022/07/14 04:35:48;;;;;;;0.00;0.00;;;14.80;79.40;;;;;;4978189;28;20038;-66
2022/07/14 04:38:14;;;;;;;0.00;0.00;;;14.80;79.30;;;;;;4986309;28;20101;-67
2022/07/14 04:40:52;;;;;;;0.00;0.00;;;14.90;79.30;;;;;;4980615;28;20088;-67
2022/07/14 04:43:18;;;;;;;0.00;0.00;;;15.00;79.40;;;;;;4980894;28;20151;-67
2022/07/14 04:45:45;;;;;;;0.00;0.00;;;15.00;79.40;;;;;;4986314;28;20195;-67
2022/07/14 04:48:11;;;;;;;0.00;0.00;;;15.10;79.30;;;;;;4987226;28;20054;-67
2022/07/14 04:53:21;;;;;;;0.00;0.00;;;15.10;79.10;;;;;;4977967;28;20050;-67
2022/07/14 04:55:47;;;;;;;0.00;0.00;;;15.20;79.30;;;;;;4988973;28;20049;-67
2022/07/14 04:58:13;;;;;;;0.00;0.00;;;15.20;79.30;;;;;;4987570;28;20058;-68
2022/07/14 05:00:38;;;;;;;0.00;0.00;;;15.30;79.30;;;;;;4987623;28;20101;-69
2022/07/14 05:03:04;;;;;;;0.00;0.00;;;15.30;79.10;;;;;;4976357;28;20050;-66
2022/07/14 05:05:29;;;;;;;0.00;0.00;;;15.40;79.20;;;;;;4991961;28;20038;-67
2022/07/14 05:07:55;;;;;;;0.00;0.00;;;15.50;78.80;;;;;;4968895;28;20109;-70
2022/07/14 05:10:21;;;;;;;0.00;0.00;;;15.50;78.60;;;;;;4992833;28;20042;-68
2022/07/14 05:12:46;;;;;;;1.85;1.38;;;15.40;78.50;;;;;;4985697;28;20067;-68
2022/07/14 05:15:12;;;;;;;0.05;0.05;;;15.50;78.60;;;;;;4989092;28;20074;-68
2022/07/14 05:17:38;;;;;;;0.00;0.00;;;15.50;78.30;;;;;;4991178;28;20053;-68
2022/07/14 05:20:04;;;;;;;0.00;0.00;;;15.60;78.10;;;;;;4973002;28;20046;-68
2022/07/14 05:22:37;;;;;;;0.00;0.00;;;15.60;78.00;;;;;;4973801;28;20469;-69
2022/07/14 05:25:07;;;;;;;0.00;0.00;;;15.60;78.10;;;;;;4988381;28;20062;-69
2022/07/14 05:27:33;;;;;;;0.00;0.00;;;15.70;77.90;;;;;;4990084;28;20472;-64
2022/07/14 05:29:59;;;;;;;0.00;0.00;;;15.80;77.70;;;;;;4998609;28;20081;-66
2022/07/14 05:32:24;;;;;;;0.00;0.00;;;15.90;78.00;;;;;;4984316;28;20039;-66
2022/07/14 05:34:50;;;;;;;0.00;0.00;;;16.00;77.60;;;;;;4975524;28;20103;-66
2022/07/14 05:37:16;;;;;;;0.00;0.00;;;16.00;77.40;;;;;;4985676;28;20053;-67
2022/07/14 05:39:41;;;;;;;0.00;0.00;;;16.10;77.30;;;;;;4985861;28;20057;-67
2022/07/14 05:42:07;;;;;;;0.00;0.00;;;16.00;77.40;;;;;;4990123;28;20054;-67
2022/07/14 05:44:35;;;;;;;0.00;0.00;;;16.00;77.30;;;;;;4991138;28;20126;-68
2022/07/14 05:47:00;;;;;;;0.00;0.00;;;16.10;77.40;;;;;;4991580;28;20803;-67
2022/07/14 05:49:26;;;;;;;0.00;0.00;;;16.00;77.80;;;;;;4973633;28;20060;-68
2022/07/14 05:51:51;;;;;;;0.00;0.00;;;16.00;78.10;;;;;;4989135;28;20120;-67
2022/07/14 05:54:17;;;;;;;1.10;0.65;;;16.10;78.00;;;;;;4991134;28;20085;-67
2022/07/14 05:56:43;;;;;;;0.00;0.00;;;16.10;78.10;;;;;;4990912;28;20058;-66
2022/07/14 05:59:08;;;;;;;0.00;0.00;;;16.10;78.40;;;;;;4989561;28;20065;-67
2022/07/14 06:01:34;;;;;;;0.00;0.00;;;16.10;79.00;;;;;;4990599;28;20047;-67
2022/07/14 06:04:00;;;;;;;0.00;0.00;;;16.20;78.80;;;;;;4988006;28;20045;-67
2022/07/14 06:06:25;;;;;;;0.00;0.00;;;16.10;78.90;;;;;;4988334;28;20054;-67
2022/07/14 06:08:51;;;;;;;0.00;0.00;;;16.10;78.60;;;;;;4976204;28;20400;-67
2022/07/14 06:11:16;;;;;;;0.00;0.00;;;16.20;78.50;;;;;;4981495;28;20121;-67
2022/07/14 06:13:45;;;;;;;0.00;0.00;;;16.20;78.10;;;;;;4977453;28;20170;-67
2022/07/14 06:16:12;;;;;;;0.00;0.00;;;16.20;78.00;;;;;;4984243;28;20054;-67
2022/07/14 06:18:38;;;;;;;0.00;0.00;;;16.30;78.30;;;;;;4974323;28;20134;-66
2022/07/14 06:21:10;;;;;;;0.00;0.00;;;16.30;78.20;;;;;;4978594;28;20543;-70
2022/07/14 06:23:36;;;;;;;0.00;0.00;;;16.50;78.30;;;;;;4989953;28;20046;-67
2022/07/14 06:26:11;;;;;;;0.00;0.00;;;16.60;77.40;;;;;;4990478;28;20042;-68
2022/07/14 06:28:37;;;;;;;0.00;0.00;;;16.60;76.70;;;;;;4991532;28;20530;-67
2022/07/14 06:31:03;;;;;;;0.00;0.00;;;16.70;76.30;;;;;;4990238;28;20050;-68
2022/07/14 06:33:29;;;;;;;0.00;0.00;;;16.70;76.80;;;;;;4991502;28;20081;-67
2022/07/14 06:35:55;;;;;;;0.70;0.70;;;16.70;77.20;;;;;;4991073;28;20490;-68
2022/07/14 06:38:20;;;;;;;0.00;0.00;;;16.70;77.00;;;;;;4979922;28;20085;-68
2022/07/14 06:40:46;;;;;;;0.40;0.40;;;16.80;76.80;;;;;;5009119;28;20053;-68
2022/07/14 06:43:11;;;;;;;0.00;0.00;;;16.90;76.40;;;;;;4993962;28;20113;-69
2022/07/14 06:45:39;;;;;;;0.00;0.00;;;16.90;76.30;;;;;;4985241;28;20038;-68
2022/07/14 06:48:05;;;;;;;0.03;0.03;;;17.00;76.50;;;;;;4977355;28;20034;-67
2022/07/14 06:50:31;;;;;;;0.00;0.00;;;17.00;75.90;;;;;;4978570;28;20057;-67
2022/07/14 06:52:56;;;;;;;0.00;0.00;;;17.10;75.50;;;;;;4983652;28;20054;-69
2022/07/14 06:55:22;;;;;;;0.00;0.00;;;17.10;75.50;;;;;;4989968;28;20080;-67
2022/07/14 06:57:48;;;;;;;0.00;0.00;;;17.10;75.00;;;;;;4992663;28;20086;-67
2022/07/14 07:00:14;;;;;;;0.00;0.00;;;17.10;74.90;;;;;;4982814;28;20054;-66
2022/07/14 07:02:40;;;;;;;0.93;0.32;;;17.10;74.70;;;;;;4988835;28;20094;-69
2022/07/14 07:07:55;;;;;;;0.00;0.00;;;17.10;74.10;;;;;;4982813;28;20499;-66
2022/07/14 07:10:20;;;;;;;0.00;0.00;;;17.10;74.10;;;;;;4993137;28;20040;-66
2022/07/14 07:12:46;;;;;;;0.00;0.00;;;17.10;74.40;;;;;;4990650;28;20054;-65
2022/07/14 07:15:12;;;;;;;0.00;0.00;;;17.10;74.00;;;;;;4990442;28;20050;-65
2022/07/14 07:17:37;;;;;;;0.00;0.00;;;17.20;74.00;;;;;;4985982;28;20050;-66
2022/07/14 07:20:04;;;;;;;0.00;0.00;;;17.20;72.90;;;;;;4976641;28;20100;-66
2022/07/14 07:22:29;;;;;;;0.00;0.00;;;17.40;73.30;;;;;;4989731;28;20050;-65
2022/07/14 07:24:56;;;;;;;0.00;0.00;;;17.60;71.90;;;;;;4990237;28;20141;-66
2022/07/14 07:27:22;;;;;;;0.00;0.00;;;17.60;71.60;;;;;;4986782;28;20034;-66
2022/07/14 07:29:47;;;;;;;0.00;0.00;;;17.70;71.70;;;;;;4987241;28;20152;-65
2022/07/14 07:32:13;;;;;;;0.00;0.00;;;17.70;72.60;;;;;;4985104;28;20049;-65
2022/07/14 07:34:39;;;;;;;0.00;0.00;;;17.80;71.60;;;;;;4993092;28;20105;-65
2022/07/14 07:37:05;;;;;;;0.00;0.00;;;17.80;70.60;;;;;;4988064;28;20034;-65
2022/07/14 07:39:31;;;;;;;0.00;0.00;;;17.80;69.80;;;;;;4978906;28;20046;-65
2022/07/14 07:42:00;;;;;;;0.00;0.00;;;17.80;70.00;;;;;;4988724;28;20046;-65
2022/07/14 07:44:27;;;;;;;0.00;0.00;;;17.90;70.30;;;;;;4992404;28;20041;-65
2022/07/14 07:46:53;;;;;;;0.00;0.00;;;18.00;70.00;;;;;;4994341;28;20038;-65
2022/07/14 07:49:19;;;;;;;0.52;0.52;;;18.10;68.60;;;;;;4992752;28;20095;-65
2022/07/14 07:51:44;;;;;;;0.00;0.00;;;18.10;67.10;;;;;;4978437;28;20086;-65
2022/07/14 07:54:10;;;;;;;0.00;0.00;;;18.10;66.20;;;;;;4988993;28;20105;-64
2022/07/14 07:56:36;;;;;;;0.00;0.00;;;18.10;66.80;;;;;;4991845;28;20122;-65
2022/07/14 07:59:02;;;;;;;0.00;0.00;;;18.20;66.80;;;;;;4989908;28;20042;-65
2022/07/14 08:01:27;;;;;;;0.00;0.00;;;18.20;67.00;;;;;;4995367;28;20496;-65
2022/07/14 08:03:53;;;;;;;0.00;0.00;;;18.20;67.10;;;;;;4987860;28;20110;-65
2022/07/14 08:06:19;;;;;;;0.00;0.00;;;18.30;67.10;;;;;;4989183;28;20097;-65
2022/07/14 08:08:44;;;;;;;0.00;0.00;;;18.40;67.40;;;;;;4986856;28;20030;-65
2022/07/14 08:11:10;;;;;;;0.00;0.00;;;18.50;67.30;;;;;;4986927;28;20125;-66
2022/07/14 08:13:35;;;;;;;0.00;0.00;;;18.60;67.00;;;;;;4988367;28;20125;-66
2022/07/14 08:16:01;;;;;;;0.00;0.00;;;18.70;67.10;;;;;;4980925;28;20046;-66
2022/07/14 08:18:27;;;;;;;0.00;0.00;;;18.60;66.10;;;;;;4986315;28;20558;-65
2022/07/14 08:20:52;;;;;;;0.00;0.00;;;18.60;66.20;;;;;;5002124;28;20125;-65
2022/07/14 08:23:19;;;;;;;0.00;0.00;;;18.60;64.90;;;;;;4972910;28;20741;-65
2022/07/14 08:25:45;;;;;;;0.00;0.00;;;18.50;66.00;;;;;;4980472;28;20065;-65
2022/07/14 08:28:10;;;;;;;0.00;0.00;;;18.50;66.10;;;;;;4977323;28;20403;-65
2022/07/14 08:30:36;;;;;;;0.00;0.00;;;18.60;66.20;;;;;;4986922;28;20456;-65
2022/07/14 08:33:01;;;;;;;0.00;0.00;;;18.60;65.00;;;;;;4988042;28;20046;-64
2022/07/14 08:35:27;;;;;;;0.00;0.00;;;18.60;65.50;;;;;;4991631;28;20451;-66
2022/07/14 08:37:54;;;;;;;0.00;0.00;;;18.80;67.00;;;;;;4993249;28;20392;-66
2022/07/14 08:40:25;;;;;;;0.00;0.00;;;18.80;66.40;;;;;;4985437;28;20101;-65
2022/07/14 08:42:53;;;;;;;0.00;0.00;;;18.90;66.70;;;;;;4987478;28;20046;-67
2022/07/14 08:45:21;;;;;;;0.00;0.00;;;18.90;64.80;;;;;;4989402;28;20058;-66
2022/07/14 08:47:48;;;;;;;0.00;0.00;;;19.00;65.60;;;;;;4990584;28;20157;-66
2022/07/14 08:50:19;;;;;;;0.00;0.00;;;19.00;65.70;;;;;;4989051;28;20034;-66
2022/07/14 08:52:46;;;;;;;0.00;0.00;;;19.00;65.60;;;;;;5004685;28;20050;-67
2022/07/14 08:55:16;;;;;;;0.00;0.00;;;19.00;65.10;;;;;;5000582;28;20042;-66
2022/07/14 08:57:42;;;;;;;0.00;0.00;;;19.10;66.40;;;;;;4995050;28;20050;-63
2022/07/14 09:00:13;;;;;;;0.00;0.00;;;19.10;66.70;;;;;;4992243;28;20121;-63
2022/07/14 09:02:45;;;;;;;0.00;0.00;;;19.10;66.70;;;;;;4988734;28;20042;-65
2022/07/14 09:05:13;;;;;;;0.28;0.28;;;19.10;66.80;;;;;;4991701;28;20092;-65
2022/07/14 09:07:39;;;;;;;0.00;0.00;;;19.10;65.60;;;;;;5001393;28;20050;-64
2022/07/14 09:10:12;;;;;;;0.00;0.00;;;19.10;65.80;;;;;;4991992;28;20041;-63
2022/07/14 09:12:38;;;;;;;0.00;0.00;;;19.10;66.50;;;;;;4991983;28;20051;-63
2022/07/14 09:17:56;;;;;;;0.00;0.00;;;19.20;65.60;;;;;;4991629;28;20062;-64
2022/07/14 09:20:24;;;;;;;0.00;0.00;;;19.30;66.70;;;;;;4992107;28;20054;-64
2022/07/14 09:22:56;;;;;;;0.00;0.00;;;19.30;65.40;;;;;;4991297;28;20129;-64
2022/07/14 09:25:22;;;;;;;;;;;19.30;65.40;;;;;;4991453;28;20046;-64
2022/07/14 09:27:48;;;;;;;0.00;0.00;;;19.10;65.00;;;;;;4991089;28;19972;-64
2022/07/14 09:30:15;;;;;;;0.00;0.00;;;19.10;65.90;;;;;;4990950;28;20038;-64
2022/07/14 09:32:44;;;;;;;0.00;0.00;;;19.30;65.60;;;;;;4986914;28;20043;-64
2022/07/14 09:35:11;;;;;;;0.00;0.00;;;19.50;65.90;;;;;;4984572;28;20039;-64
2022/07/14 09:37:37;;;;;;;0.00;0.00;;;19.60;64.80;;;;;;5000240;28;20113;-65
2022/07/14 09:40:05;;;;;;;0.80;0.80;;;19.60;65.50;;;;;;4988655;28;20050;-66
2022/07/14 09:42:50;;;;;;;0.00;0.00;;;19.70;65.10;;;;;;4979377;28;20046;-67
2022/07/14 09:45:18;;;;;;;0.00;0.00;;;19.60;64.10;;;;;;5003110;28;20046;-65
2022/07/14 09:48:00;;;;;;;0.00;0.00;;;19.60;64.00;;;;;;4996493;28;20057;-65
2022/07/14 09:50:41;;;;;;;0.00;0.00;;;19.30;63.20;;;;;;4976948;28;20043;-65
2022/07/14 09:53:32;;;;;;;0.00;0.00;;;19.30;64.30;;;;;;4971669;28;20120;-65
2022/07/14 09:56:08;;;;;;;0.00;0.00;;;19.40;65.40;;;;;;4972270;28;20058;-65
2022/07/14 09:58:57;;;;;;;0.00;0.00;;;19.40;66.30;;;;;;4990891;28;20121;-65
2022/07/14 10:01:24;;;;;;;0.00;0.00;;;19.30;66.40;;;;;;4991661;28;20046;-65
2022/07/14 10:03:53;;;;;;;0.00;0.00;;;19.20;65.50;;;;;;4987044;28;20065;-65
2022/07/14 10:06:20;;;;;;;0.00;0.00;;;19.30;66.30;;;;;;4982608;28;20038;-65
2022/07/14 10:08:49;;;;;;;0.00;0.00;;;19.40;66.50;;;;;;4990440;28;20503;-65
2022/07/14 10:11:16;;;;;;;0.00;0.00;;;19.30;66.80;;;;;;4989222;28;20039;-65
2022/07/14 10:13:42;;;;;;;0.00;0.00;;;19.30;66.60;;;;;;4986698;28;20583;-65
2022/07/14 10:16:08;;;;;;;0.00;0.00;;;19.30;66.90;;;;;;4971807;28;20078;-65
2022/07/14 10:18:34;;;;;;;0.00;0.00;;;19.30;67.70;;;;;;4996074;28;20046;-65
2022/07/14 10:21:01;;;;;;;0.00;0.00;;;19.60;67.00;;;;;;4998437;28;20073;-65
2022/07/14 10:23:29;;;;;;;0.00;0.00;;;19.70;66.60;;;;;;4990672;28;20046;-65
2022/07/14 10:25:57;;;;;;;0.00;0.00;;;19.70;65.70;;;;;;4990047;28;20042;-63
2022/07/14 10:28:25;;;;;;;0.00;0.00;;;19.80;65.90;;;;;;4988775;28;20042;-59
2022/07/14 10:30:59;;;;;;;0.00;0.00;;;19.80;65.60;;;;;;4990672;28;20054;-70
2022/07/14 10:33:49;;;;;;;0.00;0.00;;;19.90;66.10;;;;;;4984242;28;20073;-70
2022/07/14 10:36:24;;;;;;;0.00;0.00;;;19.90;64.90;;;;;;4989895;28;20380;-67
2022/07/14 10:39:14;;;;;;;0.00;0.00;;;19.90;65.20;;;;;;4990189;28;20393;-67
2022/07/14 10:41:49;;;;;;;0.00;0.00;;;19.90;65.10;;;;;;4991352;28;20133;-67
2022/07/14 10:44:33;;;;;;;0.00;0.00;;;19.90;65.00;;;;;;4995405;28;20073;-67
2022/07/14 10:47:10;;;;;;;0.00;0.00;;;19.70;64.90;;;;;;4992215;28;20050;-67
2022/07/14 10:50:10;;;;;;;0.00;0.00;;;19.70;65.90;;;;;;5005164;28;20049;-67
2022/07/14 10:52:38;;;;;;;0.00;0.00;;;19.60;65.50;;;;;;5010373;28;20587;-67
2022/07/14 10:55:13;;;;;;;0.00;0.00;;;19.70;65.90;;;;;;4993068;28;20053;-65
2022/07/14 10:57:39;;;;;;;0.00;0.00;;;19.70;65.90;;;;;;4991027;28;20096;-66
2022/07/14 11:00:06;;;;;;;0.00;0.00;;;19.60;66.50;;;;;;4988735;28;20615;-66
2022/07/14 11:02:34;;;;;;;0.00;0.00;;;19.60;64.30;;;;;;4980341;28;20050;-67
2022/07/14 11:05:12;;;;;;;0.00;0.00;;;19.50;65.50;;;;;;4981966;28;20082;-67
2022/07/14 11:07:52;;;;;;;0.00;0.00;;;19.60;65.30;;;;;;4988188;28;20138;-68
2022/07/14 11:10:21;;;;;;;0.00;0.00;;;19.60;65.40;;;;;;4987237;28;20117;-67
2022/07/14 11:13:04;;;;;;;0.00;0.00;;;19.50;65.40;;;;;;4979748;28;20077;-68
2022/07/14 11:15:55;;;;;;;0.00;0.00;;;19.60;65.60;;;;;;4989109;28;20035;-69
2022/07/14 11:18:28;;;;;;;0.00;0.00;;;19.70;64.20;;;;;;4983663;28;20519;-67
2022/07/14 11:21:05;;;;;;;0.00;0.00;;;19.80;64.50;;;;;;4971652;28;20054;-68
2022/07/14 11:23:48;;;;;;;0.00;0.00;;;20.00;64.60;;;;;;4988870;28;20511;-68
2022/07/14 11:26:34;;;;;;;0.00;0.00;;;20.10;63.60;;;;;;4988699;28;20044;-67
2022/07/14 11:29:04;;;;;;;0.00;0.00;;;20.20;63.20;;;;;;4988310;28;20050;-67
2022/07/14 11:31:47;;;;;;;0.00;0.00;;;20.20;63.10;;;;;;4988404;28;20834;-68
2022/07/14 11:37:13;;;;;;;0.00;0.00;;;20.20;60.20;;;;;;4989394;28;20074;-68
2022/07/14 11:39:42;;;;;;;0.00;0.00;;;20.40;62.00;;;;;;4969276;28;20155;-71
2022/07/14 11:42:17;;;;;;;0.00;0.00;;;20.50;60.60;;;;;;4987821;28;20416;-72
2022/07/14 11:44:44;;;;;;;0.00;0.00;;;20.60;59.10;;;;;;4998082;28;20073;-68
2022/07/14 11:47:24;;;;;;;0.00;0.00;;;20.70;59.30;;;;;;4992485;28;20074;-69
2022/07/14 11:49:57;;;;;;;0.00;0.00;;;20.70;58.40;;;;;;4985098;28;20050;-69
2022/07/14 11:52:34;;;;;;;0.00;0.00;;;20.60;57.10;;;;;;4987826;28;20121;-69
2022/07/14 11:55:07;;;;;;;0.00;0.00;;;20.50;58.50;;;;;;4989489;28;20046;-70
2022/07/14 11:57:33;;;;;;;0.00;0.00;;;20.50;58.40;;;;;;4988660;28;20046;-68
2022/07/14 12:00:09;;;;;;;0.00;0.00;;;20.50;58.30;;;;;;4989694;28;20915;-70
2022/07/14 12:02:56;;;;;;;0.00;0.00;;;20.50;57.80;;;;;;4990428;28;20117;-69
2022/07/14 12:05:24;;;;;;;0.00;0.00;;;20.40;59.50;;;;;;4995454;28;20060;-69
2022/07/14 12:07:53;;;;;;;0.00;0.00;;;20.50;59.30;;;;;;4971972;28;20054;-70
2022/07/14 12:10:38;;;;;;;0.00;0.00;;;20.50;58.50;;;;;;4988349;28;20479;-69
2022/07/14 12:13:04;;;;;;;0.00;0.00;;;20.60;58.40;;;;;;4989926;28;20054;-69
2022/07/14 12:15:31;;;;;;;0.00;0.00;;;20.60;56.90;;;;;;5002349;28;20049;-69
2022/07/14 12:18:00;;;;;;;0.00;0.00;;;20.60;57.70;;;;;;5008795;28;20064;-69
2022/07/14 12:20:26;;;;;;;0.00;0.00;;;20.60;56.50;;;;;;4975139;28;20057;-70
2022/07/14 12:22:54;;;;;;;0.00;0.00;;;20.60;57.50;;;;;;4970387;28;20043;-68
2022/07/14 12:25:34;;;;;;;0.00;0.00;;;20.80;58.20;;;;;;5000234;28;20101;-69
2022/07/14 12:28:02;;;;;;;0.00;0.00;;;20.90;56.80;;;;;;4986643;28;20449;-69
2022/07/14 12:30:51;;;;;;;0.00;0.00;;;20.90;56.70;;;;;;4988306;28;20078;-69
2022/07/14 12:33:28;;;;;;;0.00;0.00;;;20.90;56.60;;;;;;4991893;28;20042;-69
2022/07/14 12:35:56;;;;;;;0.10;0.10;;;21.00;55.70;;;;;;4987578;28;20039;-69
2022/07/14 12:38:23;;;;;;;0.00;0.00;;;21.00;54.30;;;;;;4996204;28;20038;-68
2022/07/14 12:40:52;;;;;;;0.00;0.00;;;21.10;54.20;;;;;;4989363;28;20050;-68
2022/07/14 12:43:19;;;;;;;0.00;0.00;;;21.10;52.30;;;;;;4986165;28;20054;-68
2022/07/14 12:46:17;;;;;;;0.00;0.00;;;21.20;53.50;;;;;;5005696;28;20428;-68
2022/07/14 12:48:54;;;;;;;0.00;0.00;;;21.30;52.70;;;;;;4998509;28;20531;-68
2022/07/14 12:51:37;;;;;;;0.00;0.00;;;21.50;52.80;;;;;;4972024;28;20082;-68
2022/07/14 12:54:09;;;;;;;0.00;0.00;;;21.60;52.00;;;;;;4985516;28;20053;-68
2022/07/14 12:56:43;;;;;;;0.00;0.00;;;21.60;50.50;;;;;;4981943;28;20178;-69
2022/07/14 12:59:14;;;;;;;0.00;0.00;;;21.70;51.10;;;;;;5005194;28;20117;-69
2022/07/14 13:01:54;;;;;;;0.00;0.00;;;21.70;50.80;;;;;;4987405;28;20042;-69
2022/07/14 13:04:38;;;;;;;0.00;0.00;;;21.70;49.10;;;;;;4981787;28;20092;-70
2022/07/14 13:07:27;;;;;;;0.00;0.00;;;21.80;51.00;;;;;;5006279;28;20042;-68